Moosonee Airport
CYMO : now visible

Airfield :











YOU CAN JOIN US ON...

 
LOGIN :

Register | Disclaimer

   EN    FR    IT 

 









Legend :    VFR   Marginal VFR   IFR   Intensive IFR   Very Intensive IFR
Visi :
Ceiling :
>= 8 km
>= 3000ft
5 to 8 km
1000 to 3000 ft
1500m to 5 km
500 to 1000 ft
800 to 1500m
200 to 500 ft
< 800m
< 200 ft
Symbols :   Thunderstorms  Fog  Heavy snow  Heavy precipitations  Wind > 20 kt






- Airport Elevation : 30 ft
- IATA code : YMO


CYMO - Moosonee

CURRENT METAR :
  • 040302Z AUTO 05003KT 030V100 2SM -SN OVC003 M04/M04 A3015 RMK VIS VRB 1 1/4-3 SLP211

EXPIRED METARs :
  • 040243Z AUTO 09006KT 3SM -SN OVC003 M04/M04 A3015 RMK SLP211
  • 040211Z AUTO 07005KT 010V080 2SM -SN OVC003 M04/M04 A3016 RMK VIS VRB 5/8-3 SLP214
  • 040200Z AUTO 05003KT 010V080 2 1/4SM -SN OVC003 M04/M04 A3016 RMK SLP216
  • 040154Z AUTO 04003KT 360V070 2 1/4SM -SN OVC003 M03/M04 A3017 RMK SLP217
  • 040137Z AUTO 06004KT 010V070 2SM -SN OVC003 M03/M04 A3017 RMK SLP218
  • 040132Z AUTO 04004KT 360V060 2 1/4SM -SN OVC003 M03/M04 A3017 RMK SLP217
  • 040119Z AUTO 05005KT 1 1/4SM -SN VV003 M03/M04 A3017 RMK SLP218
  • 040100Z AUTO 08007KT 3/4SM -SN VV003 M03/M04 A3017 RMK SLP219

TAF AMD TAF CYMO
Valid from the 04 at 03:00 until the 04 at 12:00 UTC


040319Z 0403/0412 08005KT 11/2SM BR OVC002
TEMPO 0403/0412 3SM -SN BR OVC006
PROB30 0403/0412 3/4SM -FZDZ BR RMK FCST BASED ON AUTO OBS. NXT FCST BY 040600Z



MET'MAP, your aeronautical weather chart ! - Copyright ORBIFLY December 2007 - Disclaimer

ORBIFLY MET'MAP TEAM :

Programming & Development : Alexandra Zaïnal
Concept & original design : Baudouin d'Aumeries
Assistance for programming : Marc-Olivier Méhu
Technical & hardware support : Manuel Goepfert

Contact : metmap@orbifly.com




SOURCES & CREDITS :

   NOAA       Earth
Advisory